sensor_id;sensor_type;location;lat;lon;timestamp;pressure;altitude;pressure_sealevel;temperature;humidity
61384;BME280;63511;49.346;8.798;2023-02-12T00:01:38;102275.50;;;7.59;73.42
61384;BME280;63511;49.346;8.798;2023-02-12T00:04:05;102274.28;;;7.56;73.52
61384;BME280;63511;49.346;8.798;2023-02-12T00:06:33;102277.50;;;7.78;73.81
61384;BME280;63511;49.346;8.798;2023-02-12T00:09:01;102281.03;;;7.87;73.15
61384;BME280;63511;49.346;8.798;2023-02-12T00:11:28;102281.47;;;7.76;73.59
61384;BME280;63511;49.346;8.798;2023-02-12T00:13:56;102276.31;;;7.67;73.94
61384;BME280;63511;49.346;8.798;2023-02-12T00:16:24;102267.38;;;7.62;73.54
61384;BME280;63511;49.346;8.798;2023-02-12T00:18:52;102255.38;;;7.59;74.29
61384;BME280;63511;49.346;8.798;2023-02-12T00:21:20;102257.81;;;7.44;74.38
61384;BME280;63511;49.346;8.798;2023-02-12T00:23:48;102274.09;;;7.54;74.55
61384;BME280;63511;49.346;8.798;2023-02-12T00:26:19;102271.88;;;7.64;74.81
61384;BME280;63511;49.346;8.798;2023-02-12T00:28:46;102268.91;;;7.76;73.75
61384;BME280;63511;49.346;8.798;2023-02-12T00:31:14;102278.50;;;7.87;73.46
61384;BME280;63511;49.346;8.798;2023-02-12T00:33:42;102284.19;;;7.93;73.25
61384;BME280;63511;49.346;8.798;2023-02-12T00:36:09;102283.53;;;7.87;73.11
61384;BME280;63511;49.346;8.798;2023-02-12T00:38:39;102266.31;;;7.83;73.04
61384;BME280;63511;49.346;8.798;2023-02-12T00:41:06;102272.44;;;7.32;75.23
61384;BME280;63511;49.346;8.798;2023-02-12T00:43:34;102277.25;;;7.15;76.38
61384;BME280;63511;49.346;8.798;2023-02-12T00:46:02;102276.56;;;7.61;74.85
61384;BME280;63511;49.346;8.798;2023-02-12T00:48:29;102283.56;;;7.57;74.65
61384;BME280;63511;49.346;8.798;2023-02-12T00:50:56;102284.25;;;7.63;73.93
61384;BME280;63511;49.346;8.798;2023-02-12T00:53:22;102293.56;;;7.41;74.97
61384;BME280;63511;49.346;8.798;2023-02-12T00:55:49;102284.63;;;7.66;74.50
61384;BME280;63511;49.346;8.798;2023-02-12T00:58:15;102278.81;;;7.67;73.92
61384;BME280;63511;49.346;8.798;2023-02-12T01:00:43;102284.75;;;7.45;74.66
61384;BME280;63511;49.346;8.798;2023-02-12T01:03:10;102299.44;;;7.49;74.79
61384;BME280;63511;49.346;8.798;2023-02-12T01:05:36;102302.06;;;7.57;74.74
61384;BME280;63511;49.346;8.798;2023-02-12T01:08:04;102299.78;;;7.22;75.55
61384;BME280;63511;49.346;8.798;2023-02-12T01:10:30;102298.84;;;7.36;75.75
61384;BME280;63511;49.346;8.798;2023-02-12T01:12:57;102292.69;;;7.63;74.21
61384;BME280;63511;49.346;8.798;2023-02-12T01:15:23;102296.06;;;7.71;74.09
61384;BME280;63511;49.346;8.798;2023-02-12T01:17:52;102294.22;;;7.77;73.88
61384;BME280;63511;49.346;8.798;2023-02-12T01:20:21;102298.94;;;7.44;74.96
61384;BME280;63511;49.346;8.798;2023-02-12T01:22:49;102291.19;;;7.50;75.61
61384;BME280;63511;49.346;8.798;2023-02-12T01:25:17;102293.66;;;7.80;73.93
61384;BME280;63511;49.346;8.798;2023-02-12T01:27:43;102299.19;;;7.84;74.26
61384;BME280;63511;49.346;8.798;2023-02-12T01:30:13;102298.22;;;7.68;74.40
61384;BME280;63511;49.346;8.798;2023-02-12T01:32:40;102294.31;;;7.40;75.76
61384;BME280;63511;49.346;8.798;2023-02-12T01:35:08;102280.19;;;7.56;74.59
61384;BME280;63511;49.346;8.798;2023-02-12T01:37:36;102294.88;;;7.31;75.28
61384;BME280;63511;49.346;8.798;2023-02-12T01:40:04;102296.72;;;7.54;75.20
61384;BME280;63511;49.346;8.798;2023-02-12T01:42:31;102293.81;;;7.36;75.14
61384;BME280;63511;49.346;8.798;2023-02-12T01:45:33;102297.41;;;7.31;76.44
61384;BME280;63511;49.346;8.798;2023-02-12T01:48:05;102295.09;;;7.55;75.08
61384;BME280;63511;49.346;8.798;2023-02-12T01:50:34;102292.66;;;7.71;74.39
61384;BME280;63511;49.346;8.798;2023-02-12T01:53:01;102283.72;;;7.65;74.44
61384;BME280;63511;49.346;8.798;2023-02-12T01:55:27;102282.69;;;7.79;74.03
61384;BME280;63511;49.346;8.798;2023-02-12T01:57:55;102276.72;;;7.63;74.35
61384;BME280;63511;49.346;8.798;2023-02-12T02:00:23;102286.38;;;7.67;74.94
61384;BME280;63511;49.346;8.798;2023-02-12T02:02:53;102276.94;;;7.80;74.38
61384;BME280;63511;49.346;8.798;2023-02-12T02:05:23;102275.34;;;7.28;75.03
61384;BME280;63511;49.346;8.798;2023-02-12T02:07:54;102266.28;;;7.44;74.82
61384;BME280;63511;49.346;8.798;2023-02-12T02:10:21;102267.09;;;7.52;75.64
61384;BME280;63511;49.346;8.798;2023-02-12T02:12:48;102269.13;;;7.70;74.32
61384;BME280;63511;49.346;8.798;2023-02-12T02:15:32;102277.06;;;7.36;76.14
61384;BME280;63511;49.346;8.798;2023-02-12T02:18:01;102273.91;;;7.30;75.72
61384;BME280;63511;49.346;8.798;2023-02-12T02:20:47;102267.66;;;7.49;75.31
61384;BME280;63511;49.346;8.798;2023-02-12T02:29:16;102280.34;;;7.58;75.50
61384;BME280;63511;49.346;8.798;2023-02-12T02:31:50;102275.78;;;7.69;74.23
61384;BME280;63511;49.346;8.798;2023-02-12T02:34:24;102269.97;;;7.55;74.88
61384;BME280;63511;49.346;8.798;2023-02-12T02:36:56;102275.53;;;7.52;75.88
61384;BME280;63511;49.346;8.798;2023-02-12T02:39:27;102274.06;;;7.61;75.80
61384;BME280;63511;49.346;8.798;2023-02-12T02:42:00;102278.47;;;7.71;74.50
61384;BME280;63511;49.346;8.798;2023-02-12T02:44:34;102272.47;;;7.55;75.53
61384;BME280;63511;49.346;8.798;2023-02-12T02:47:07;102276.59;;;7.54;75.34
61384;BME280;63511;49.346;8.798;2023-02-12T02:49:38;102277.78;;;7.65;75.21
61384;BME280;63511;49.346;8.798;2023-02-12T02:52:08;102276.72;;;7.63;74.63
61384;BME280;63511;49.346;8.798;2023-02-12T02:54:40;102273.63;;;7.20;76.31
61384;BME280;63511;49.346;8.798;2023-02-12T02:57:12;102282.53;;;6.95;78.96
61384;BME280;63511;49.346;8.798;2023-02-12T02:59:42;102275.16;;;6.97;79.27
61384;BME280;63511;49.346;8.798;2023-02-12T03:02:15;102281.81;;;7.26;77.54
61384;BME280;63511;49.346;8.798;2023-02-12T03:04:46;102277.38;;;7.46;76.74
61384;BME280;63511;49.346;8.798;2023-02-12T03:07:20;102272.94;;;7.66;75.21
61384;BME280;63511;49.346;8.798;2023-02-12T03:09:50;102280.03;;;7.55;76.03
61384;BME280;63511;49.346;8.798;2023-02-12T03:12:24;102277.78;;;7.65;76.11
61384;BME280;63511;49.346;8.798;2023-02-12T03:14:57;102270.91;;;7.48;76.49
61384;BME280;63511;49.346;8.798;2023-02-12T03:17:30;102276.38;;;7.60;75.28
61384;BME280;63511;49.346;8.798;2023-02-12T03:20:03;102273.88;;;7.60;76.12
61384;BME280;63511;49.346;8.798;2023-02-12T03:22:33;102273.47;;;7.64;75.38
61384;BME280;63511;49.346;8.798;2023-02-12T03:25:03;102288.16;;;7.68;75.52
61384;BME280;63511;49.346;8.798;2023-02-12T03:27:36;102287.03;;;7.73;75.52
61384;BME280;63511;49.346;8.798;2023-02-12T03:30:05;102285.97;;;7.48;76.06
61384;BME280;63511;49.346;8.798;2023-02-12T03:32:40;102290.03;;;7.32;76.33
61384;BME280;63511;49.346;8.798;2023-02-12T03:35:13;102288.59;;;7.34;76.77
61384;BME280;63511;49.346;8.798;2023-02-12T03:37:46;102275.94;;;7.48;76.55
61384;BME280;63511;49.346;8.798;2023-02-12T03:40:18;102286.84;;;7.26;77.36
61384;BME280;63511;49.346;8.798;2023-02-12T03:42:49;102286.72;;;7.17;77.97
61384;BME280;63511;49.346;8.798;2023-02-12T03:45:27;102289.56;;;7.50;76.36
61384;BME280;63511;49.346;8.798;2023-02-12T03:48:01;102287.66;;;7.41;76.31
61384;BME280;63511;49.346;8.798;2023-02-12T03:50:36;102284.47;;;7.57;76.54
61384;BME280;63511;49.346;8.798;2023-02-12T03:53:05;102287.00;;;7.57;76.48
61384;BME280;63511;49.346;8.798;2023-02-12T03:55:33;102291.41;;;7.14;77.65
61384;BME280;63511;49.346;8.798;2023-02-12T03:58:02;102291.66;;;7.32;77.59
61384;BME280;63511;49.346;8.798;2023-02-12T04:00:33;102282.53;;;7.55;76.39
61384;BME280;63511;49.346;8.798;2023-02-12T04:03:01;102286.88;;;7.49;76.93
61384;BME280;63511;49.346;8.798;2023-02-12T04:05:28;102276.44;;;7.53;76.75
61384;BME280;63511;49.346;8.798;2023-02-12T04:07:55;102288.28;;;7.54;76.38
61384;BME280;63511;49.346;8.798;2023-02-12T04:10:27;102286.63;;;7.61;76.71
61384;BME280;63511;49.346;8.798;2023-02-12T04:13:04;102287.78;;;7.49;77.04
61384;BME280;63511;49.346;8.798;2023-02-12T04:15:45;102284.47;;;7.57;76.97
61384;BME280;63511;49.346;8.798;2023-02-12T04:18:20;102290.47;;;7.51;77.15
61384;BME280;63511;49.346;8.798;2023-02-12T04:20:56;102293.78;;;7.65;75.57
61384;BME280;63511;49.346;8.798;2023-02-12T04:23:39;102290.91;;;7.62;75.84
61384;BME280;63511;49.346;8.798;2023-02-12T04:26:11;102294.88;;;7.31;77.36
61384;BME280;63511;49.346;8.798;2023-02-12T04:28:49;102302.06;;;7.57;77.06
61384;BME280;63511;49.346;8.798;2023-02-12T04:31:22;102304.59;;;7.57;76.66
61384;BME280;63511;49.346;8.798;2023-02-12T04:33:56;102316.78;;;7.32;76.84
61384;BME280;63511;49.346;8.798;2023-02-12T04:36:28;102321.06;;;7.40;77.88
61384;BME280;63511;49.346;8.798;2023-02-12T04:38:59;102315.00;;;7.31;76.81
61384;BME280;63511;49.346;8.798;2023-02-12T04:41:29;102318.47;;;7.24;77.49
61384;BME280;63511;49.346;8.798;2023-02-12T04:43:56;102313.91;;;7.36;76.97
61384;BME280;63511;49.346;8.798;2023-02-12T04:46:22;102313.56;;;7.33;77.04
61384;BME280;63511;49.346;8.798;2023-02-12T04:48:52;102307.91;;;7.42;77.00
61384;BME280;63511;49.346;8.798;2023-02-12T04:51:19;102312.91;;;7.49;76.19
61384;BME280;63511;49.346;8.798;2023-02-12T04:53:46;102302.06;;;7.57;76.13
61384;BME280;63511;49.346;8.798;2023-02-12T04:56:13;102299.91;;;7.60;76.68
61384;BME280;63511;49.346;8.798;2023-02-12T04:58:40;102304.22;;;7.61;75.61
61384;BME280;63511;49.346;8.798;2023-02-12T05:01:08;102296.78;;;7.70;75.55
61384;BME280;63511;49.346;8.798;2023-02-12T05:03:35;102301.41;;;7.74;75.65
61384;BME280;63511;49.346;8.798;2023-02-12T05:06:05;102304.25;;;7.54;76.54
61384;BME280;63511;49.346;8.798;2023-02-12T05:08:32;102308.28;;;7.45;76.59
61384;BME280;63511;49.346;8.798;2023-02-12T05:11:03;102304.41;;;7.33;76.76
61384;BME280;63511;49.346;8.798;2023-02-12T05:13:29;102298.25;;;7.08;78.54
61384;BME280;63511;49.346;8.798;2023-02-12T05:15:56;102298.06;;;7.14;77.69
61384;BME280;63511;49.346;8.798;2023-02-12T05:18:23;102296.97;;;7.42;76.50
61384;BME280;63511;49.346;8.798;2023-02-12T05:20:56;102291.16;;;7.27;77.16
61384;BME280;63511;49.346;8.798;2023-02-12T05:23:26;102288.44;;;7.25;77.13
61384;BME280;63511;49.346;8.798;2023-02-12T05:25:53;102291.44;;;7.37;76.56
61384;BME280;63511;49.346;8.798;2023-02-12T05:28:19;102301.78;;;7.47;75.65
61384;BME280;63511;49.346;8.798;2023-02-12T05:30:46;102286.91;;;7.42;76.21
61384;BME280;63511;49.346;8.798;2023-02-12T05:33:12;102298.25;;;7.38;76.04
61384;BME280;63511;49.346;8.798;2023-02-12T05:35:39;102296.34;;;7.29;76.31
61384;BME280;63511;49.346;8.798;2023-02-12T05:38:05;102298.09;;;7.07;76.62
61384;BME280;63511;49.346;8.798;2023-02-12T05:40:34;102304.91;;;7.08;76.70
61384;BME280;63511;49.346;8.798;2023-02-12T05:43:00;102301.81;;;7.10;76.74
61384;BME280;63511;49.346;8.798;2023-02-12T05:45:27;102297.13;;;6.83;77.14
61384;BME280;63511;49.346;8.798;2023-02-12T05:47:54;102300.03;;;6.72;77.52
61384;BME280;63511;49.346;8.798;2023-02-12T05:50:21;102301.06;;;6.89;77.57
61384;BME280;63511;49.346;8.798;2023-02-12T05:52:48;102303.06;;;6.77;77.17
61384;BME280;63511;49.346;8.798;2023-02-12T05:55:14;102306.81;;;6.80;76.75
61384;BME280;63511;49.346;8.798;2023-02-12T05:57:42;102302.69;;;6.74;77.10
61384;BME280;63511;49.346;8.798;2023-02-12T06:00:10;102309.84;;;6.85;76.98
61384;BME280;63511;49.346;8.798;2023-02-12T06:02:36;102321.56;;;6.70;77.52
61384;BME280;63511;49.346;8.798;2023-02-12T06:05:03;102318.06;;;6.91;77.23
61384;BME280;63511;49.346;8.798;2023-02-12T06:07:30;102317.47;;;7.01;76.52
61384;BME280;63511;49.346;8.798;2023-02-12T06:09:56;102320.50;;;7.05;76.88
61384;BME280;63511;49.346;8.798;2023-02-12T06:12:23;102326.03;;;7.10;76.67
61384;BME280;63511;49.346;8.798;2023-02-12T06:14:51;102321.78;;;7.02;76.80
61384;BME280;63511;49.346;8.798;2023-02-12T06:17:18;102316.06;;;7.03;76.84
61384;BME280;63511;49.346;8.798;2023-02-12T06:19:44;102323.28;;;6.86;78.07
61384;BME280;63511;49.346;8.798;2023-02-12T06:22:11;102321.59;;;7.00;77.65
61384;BME280;63511;49.346;8.798;2023-02-12T06:24:37;102323.72;;;7.11;76.55
61384;BME280;63511;49.346;8.798;2023-02-12T06:27:04;102325.50;;;7.19;76.85
61384;BME280;63511;49.346;8.798;2023-02-12T06:29:31;102343.63;;;7.10;76.90
61384;BME280;63511;49.346;8.798;2023-02-12T06:31:58;102333.34;;;7.22;76.36
61384;BME280;63511;49.346;8.798;2023-02-12T06:34:25;102340.69;;;7.28;76.92
61384;BME280;63511;49.346;8.798;2023-02-12T06:36:52;102329.75;;;7.28;77.20
61384;BME280;63511;49.346;8.798;2023-02-12T06:39:18;102341.06;;;7.24;77.25
61384;BME280;63511;49.346;8.798;2023-02-12T06:41:45;102345.09;;;7.08;77.23
61384;BME280;63511;49.346;8.798;2023-02-12T06:44:12;102335.94;;;7.08;78.07
61384;BME280;63511;49.346;8.798;2023-02-12T06:46:39;102341.78;;;7.23;76.78
61384;BME280;63511;49.346;8.798;2023-02-12T06:49:07;102343.38;;;7.30;76.06
61384;BME280;63511;49.346;8.798;2023-02-12T06:51:33;102343.91;;;7.27;76.95
61384;BME280;63511;49.346;8.798;2023-02-12T06:54:02;102341.06;;;7.24;76.68
61384;BME280;63511;49.346;8.798;2023-02-12T06:56:29;102345.72;;;7.28;76.16
61384;BME280;63511;49.346;8.798;2023-02-12T06:58:57;102351.25;;;7.33;76.05
61384;BME280;63511;49.346;8.798;2023-02-12T07:01:27;102347.44;;;7.36;76.45
61384;BME280;63511;49.346;8.798;2023-02-12T07:03:55;102352.19;;;7.26;77.15
61384;BME280;63511;49.346;8.798;2023-02-12T07:06:24;102349.03;;;7.13;77.99
61384;BME280;63511;49.346;8.798;2023-02-12T07:08:51;102350.94;;;7.30;77.51
61384;BME280;63511;49.346;8.798;2023-02-12T07:11:22;102349.91;;;7.50;76.57
61384;BME280;63511;49.346;8.798;2023-02-12T07:13:49;102355.97;;;7.22;77.63
61384;BME280;63511;49.346;8.798;2023-02-12T07:16:15;102355.66;;;7.49;76.58
61384;BME280;63511;49.346;8.798;2023-02-12T07:18:43;102352.22;;;7.56;76.43
61384;BME280;63511;49.346;8.798;2023-02-12T07:21:12;102358.16;;;7.49;76.54
61384;BME280;63511;49.346;8.798;2023-02-12T07:23:40;102360.09;;;7.22;77.75
61384;BME280;63511;49.346;8.798;2023-02-12T07:26:10;102338.56;;;7.24;78.32
61384;BME280;63511;49.346;8.798;2023-02-12T07:28:37;102343.78;;;7.55;76.65
61384;BME280;63511;49.346;8.798;2023-02-12T07:31:08;102359.91;;;7.28;78.67
61384;BME280;63511;49.346;8.798;2023-02-12T07:33:36;102350.59;;;7.56;77.23
61384;BME280;63511;49.346;8.798;2023-02-12T07:36:05;102349.72;;;7.49;77.03
61384;BME280;63511;49.346;8.798;2023-02-12T07:38:32;102356.75;;;7.74;76.80
61384;BME280;63511;49.346;8.798;2023-02-12T07:41:12;102359.84;;;7.72;76.54
61384;BME280;63511;49.346;8.798;2023-02-12T07:43:39;102359.19;;;7.58;77.41
61384;BME280;63511;49.346;8.798;2023-02-12T07:46:08;102360.47;;;7.55;77.61
61384;BME280;63511;49.346;8.798;2023-02-12T07:48:35;102350.16;;;7.38;77.65
61384;BME280;63511;49.346;8.798;2023-02-12T07:51:03;102352.50;;;7.66;77.32
61384;BME280;63511;49.346;8.798;2023-02-12T07:53:30;102358.66;;;7.61;77.88
61384;BME280;63511;49.346;8.798;2023-02-12T07:56:04;102368.72;;;7.84;76.64
61384;BME280;63511;49.346;8.798;2023-02-12T07:58:32;102362.50;;;7.73;76.60
61384;BME280;63511;49.346;8.798;2023-02-12T08:00:59;102373.41;;;7.81;76.77
61384;BME280;63511;49.346;8.798;2023-02-12T08:03:27;102365.44;;;7.92;76.53
61384;BME280;63511;49.346;8.798;2023-02-12T08:05:54;102358.03;;;7.93;76.78
61384;BME280;63511;49.346;8.798;2023-02-12T08:08:21;102370.06;;;8.19;76.36
61384;BME280;63511;49.346;8.798;2023-02-12T08:10:48;102373.72;;;8.29;75.87
61384;BME280;63511;49.346;8.798;2023-02-12T08:13:15;102366.31;;;8.15;76.44
61384;BME280;63511;49.346;8.798;2023-02-12T08:15:43;102362.91;;;8.37;76.33
61384;BME280;63511;49.346;8.798;2023-02-12T08:18:10;102360.75;;;8.56;75.28
61384;BME280;63511;49.346;8.798;2023-02-12T08:20:36;102365.66;;;8.55;75.07
61384;BME280;63511;49.346;8.798;2023-02-12T08:23:03;102374.72;;;8.23;75.53
61384;BME280;63511;49.346;8.798;2023-02-12T08:25:30;102366.34;;;7.92;76.69
61384;BME280;63511;49.346;8.798;2023-02-12T08:27:57;102375.47;;;8.44;76.02
61384;BME280;63511;49.346;8.798;2023-02-12T08:30:23;102375.25;;;8.20;76.38
61384;BME280;63511;49.346;8.798;2023-02-12T08:32:51;102372.34;;;8.24;76.55
61384;BME280;63511;49.346;8.798;2023-02-12T08:35:19;102370.19;;;8.66;76.08
61384;BME280;63511;49.346;8.798;2023-02-12T08:37:45;102381.13;;;8.05;76.85
61384;BME280;63511;49.346;8.798;2023-02-12T08:40:12;102381.78;;;7.88;78.37
61384;BME280;63511;49.346;8.798;2023-02-12T08:42:39;102357.38;;;7.87;77.98
61384;BME280;63511;49.346;8.798;2023-02-12T08:45:07;102368.56;;;8.05;77.70
61384;BME280;63511;49.346;8.798;2023-02-12T08:47:34;102380.75;;;7.86;78.46
61384;BME280;63511;49.346;8.798;2023-02-12T08:50:02;102375.44;;;7.99;78.66
61384;BME280;63511;49.346;8.798;2023-02-12T08:52:29;102382.69;;;7.89;79.45
61384;BME280;63511;49.346;8.798;2023-02-12T08:54:56;102375.53;;;7.85;78.12
61384;BME280;63511;49.346;8.798;2023-02-12T08:57:23;102387.06;;;8.28;77.72
61384;BME280;63511;49.346;8.798;2023-02-12T08:59:50;102379.78;;;8.16;77.61
61384;BME280;63511;49.346;8.798;2023-02-12T09:02:16;102381.63;;;8.09;77.83
61384;BME280;63511;49.346;8.798;2023-02-12T09:04:43;102386.63;;;8.39;77.23
61384;BME280;63511;49.346;8.798;2023-02-12T09:07:11;102378.00;;;8.76;75.37
61384;BME280;63511;49.346;8.798;2023-02-12T09:09:37;102384.03;;;9.01;74.15
61384;BME280;63511;49.346;8.798;2023-02-12T09:12:04;102389.38;;;9.19;74.23
61384;BME280;63511;49.346;8.798;2023-02-12T09:14:31;102391.16;;;9.20;73.49
61384;BME280;63511;49.346;8.798;2023-02-12T09:16:58;102389.19;;;9.18;73.80
61384;BME280;63511;49.346;8.798;2023-02-12T09:19:24;102392.56;;;9.10;73.78
61384;BME280;63511;49.346;8.798;2023-02-12T09:21:53;102393.25;;;8.62;75.60
61384;BME280;63511;49.346;8.798;2023-02-12T09:24:21;102387.91;;;8.59;75.85
61384;BME280;63511;49.346;8.798;2023-02-12T09:26:48;102392.28;;;8.52;76.27
61384;BME280;63511;49.346;8.798;2023-02-12T09:29:14;102393.63;;;8.42;78.19
61384;BME280;63511;49.346;8.798;2023-02-12T09:31:41;102377.06;;;8.44;77.42
61384;BME280;63511;49.346;8.798;2023-02-12T09:34:07;102402.91;;;8.66;76.76
61384;BME280;63511;49.346;8.798;2023-02-12T09:36:34;102406.47;;;9.06;75.99
61384;BME280;63511;49.346;8.798;2023-02-12T09:39:01;102395.09;;;8.94;76.03
61384;BME280;63511;49.346;8.798;2023-02-12T09:41:59;102397.91;;;9.28;75.21
61384;BME280;63511;49.346;8.798;2023-02-12T09:44:37;102396.59;;;9.48;74.29
61384;BME280;63511;49.346;8.798;2023-02-12T09:47:12;102382.28;;;9.39;74.02
61384;BME280;63511;49.346;8.798;2023-02-12T09:49:50;102394.47;;;9.28;74.40
61384;BME280;63511;49.346;8.798;2023-02-12T09:52:23;102390.41;;;9.53;73.84
61384;BME280;63511;49.346;8.798;2023-02-12T09:54:51;102383.09;;;9.47;73.98
61384;BME280;63511;49.346;8.798;2023-02-12T09:57:24;102391.47;;;9.39;74.46
61384;BME280;63511;49.346;8.798;2023-02-12T09:59:57;102391.66;;;9.65;74.02
61384;BME280;63511;49.346;8.798;2023-02-12T10:02:24;102380.50;;;9.87;72.55
61384;BME280;63511;49.346;8.798;2023-02-12T10:04:52;102387.69;;;9.51;74.65
61384;BME280;63511;49.346;8.798;2023-02-12T10:07:28;102367.16;;;9.88;73.04
61384;BME280;63511;49.346;8.798;2023-02-12T10:10:18;102381.75;;;9.51;74.19
61384;BME280;63511;49.346;8.798;2023-02-12T10:12:54;102385.22;;;9.60;74.17
61384;BME280;63511;49.346;8.798;2023-02-12T10:15:30;102377.44;;;9.50;73.88
61384;BME280;63511;49.346;8.798;2023-02-12T10:18:10;102393.44;;;10.14;72.37
61384;BME280;63511;49.346;8.798;2023-02-12T10:20:51;102390.91;;;9.90;71.97
61384;BME280;63511;49.346;8.798;2023-02-12T10:23:40;102393.31;;;9.49;73.91
61384;BME280;63511;49.346;8.798;2023-02-12T10:26:17;102389.13;;;9.65;74.06
61384;BME280;63511;49.346;8.798;2023-02-12T10:28:48;102379.47;;;9.61;73.94
61384;BME280;63511;49.346;8.798;2023-02-12T10:31:20;102393.19;;;9.71;74.69
61384;BME280;63511;49.346;8.798;2023-02-12T10:33:50;102392.56;;;9.50;74.44
61384;BME280;63511;49.346;8.798;2023-02-12T10:36:30;102383.38;;;9.74;74.03
61384;BME280;63511;49.346;8.798;2023-02-12T10:39:02;102370.91;;;9.67;74.12
61384;BME280;63511;49.346;8.798;2023-02-12T10:41:29;102384.13;;;10.22;72.79
61384;BME280;63511;49.346;8.798;2023-02-12T10:43:59;102370.19;;;10.01;72.63
61384;BME280;63511;49.346;8.798;2023-02-12T10:46:29;102367.09;;;10.37;71.75
61384;BME280;63511;49.346;8.798;2023-02-12T10:48:57;102365.69;;;10.56;70.98
61384;BME280;63511;49.346;8.798;2023-02-12T10:51:44;102360.59;;;10.14;72.43
61384;BME280;63511;49.346;8.798;2023-02-12T10:54:31;102360.06;;;10.67;71.89
61384;BME280;63511;49.346;8.798;2023-02-12T10:56:59;102341.03;;;10.79;70.07
61384;BME280;63511;49.346;8.798;2023-02-12T10:59:33;102351.47;;;10.82;70.79
61384;BME280;63511;49.346;8.798;2023-02-12T11:01:59;102350.97;;;10.78;71.75
61384;BME280;63511;49.346;8.798;2023-02-12T11:04:29;102349.53;;;11.05;70.18
61384;BME280;63511;49.346;8.798;2023-02-12T11:06:59;102343.72;;;11.15;70.11
61384;BME280;63511;49.346;8.798;2023-02-12T11:09:29;102341.66;;;11.02;70.53
61384;BME280;63511;49.346;8.798;2023-02-12T11:11:57;102349.50;;;10.88;71.04
61384;BME280;63511;49.346;8.798;2023-02-12T11:14:24;102346.09;;;11.22;70.52
61384;BME280;63511;49.346;8.798;2023-02-12T11:16:54;102343.44;;;11.29;70.42
61384;BME280;63511;49.346;8.798;2023-02-12T11:19:23;102342.53;;;11.12;70.77
61384;BME280;63511;49.346;8.798;2023-02-12T11:21:51;102345.81;;;11.02;71.01
61384;BME280;63511;49.346;8.798;2023-02-12T11:24:30;102334.75;;;11.53;69.38
61384;BME280;63511;49.346;8.798;2023-02-12T11:27:12;102336.88;;;11.23;70.64
61384;BME280;63511;49.346;8.798;2023-02-12T11:29:45;102332.34;;;11.63;69.12
61384;BME280;63511;49.346;8.798;2023-02-12T11:32:17;102329.13;;;11.30;69.91
61384;BME280;63511;49.346;8.798;2023-02-12T11:35:03;102309.31;;;11.43;69.07
61384;BME280;63511;49.346;8.798;2023-02-12T11:37:32;102326.84;;;11.59;69.11
61384;BME280;63511;49.346;8.798;2023-02-12T11:40:01;102321.44;;;11.81;68.85
61384;BME280;63511;49.346;8.798;2023-02-12T11:42:31;102319.69;;;11.80;68.44
61384;BME280;63511;49.346;8.798;2023-02-12T11:45:01;102314.44;;;11.87;68.14
61384;BME280;63511;49.346;8.798;2023-02-12T11:47:31;102310.78;;;11.58;69.71
61384;BME280;63511;49.346;8.798;2023-02-12T11:50:03;102316.84;;;11.86;69.17
61384;BME280;63511;49.346;8.798;2023-02-12T11:52:33;102308.16;;;11.92;68.76
61384;BME280;63511;49.346;8.798;2023-02-12T11:55:03;102303.66;;;11.99;67.16
61384;BME280;63511;49.346;8.798;2023-02-12T11:57:34;102308.97;;;12.10;67.84
61384;BME280;63511;49.346;8.798;2023-02-12T12:00:03;102296.53;;;11.95;67.33
61384;BME280;63511;49.346;8.798;2023-02-12T12:02:33;102295.34;;;12.46;66.38
61384;BME280;63511;49.346;8.798;2023-02-12T12:05:07;102297.38;;;12.58;66.51
61384;BME280;63511;49.346;8.798;2023-02-12T12:07:40;102284.28;;;12.54;66.64
61384;BME280;63511;49.346;8.798;2023-02-12T12:10:12;102289.03;;;12.05;67.42
61384;BME280;63511;49.346;8.798;2023-02-12T12:12:45;102280.72;;;12.24;68.21
61384;BME280;63511;49.346;8.798;2023-02-12T12:15:16;102287.81;;;12.10;67.92
61384;BME280;63511;49.346;8.798;2023-02-12T12:18:25;102285.75;;;12.06;67.74
61384;BME280;63511;49.346;8.798;2023-02-12T12:21:18;102284.72;;;12.31;65.87
61384;BME280;63511;49.346;8.798;2023-02-12T12:23:51;102283.81;;;12.30;66.64
61384;BME280;63511;49.346;8.798;2023-02-12T12:26:56;102274.50;;;12.21;67.02
61384;BME280;63511;49.346;8.798;2023-02-12T12:29:46;102270.56;;;12.70;64.66
61384;BME280;63511;49.346;8.798;2023-02-12T12:32:18;102271.50;;;12.44;65.83
61384;BME280;63511;49.346;8.798;2023-02-12T12:34:48;102271.38;;;12.61;65.87
61384;BME280;63511;49.346;8.798;2023-02-12T12:37:28;102272.06;;;12.31;66.86
61384;BME280;63511;49.346;8.798;2023-02-12T12:40:10;102260.22;;;12.77;64.93
61384;BME280;63511;49.346;8.798;2023-02-12T12:43:01;102260.09;;;12.11;66.20
61384;BME280;63511;49.346;8.798;2023-02-12T12:45:59;102266.66;;;12.09;66.78
61384;BME280;63511;49.346;8.798;2023-02-12T12:51:26;102257.69;;;12.13;65.81
61384;BME280;63511;49.346;8.798;2023-02-12T12:54:11;102250.41;;;12.34;65.97
61384;BME280;63511;49.346;8.798;2023-02-12T12:56:59;102261.56;;;11.90;67.45
61384;BME280;63511;49.346;8.798;2023-02-12T12:59:41;102256.44;;;11.99;67.28
61384;BME280;63511;49.346;8.798;2023-02-12T13:02:41;102234.53;;;12.27;65.90
61384;BME280;63511;49.346;8.798;2023-02-12T13:08:25;102228.69;;;12.28;65.75
61384;BME280;63511;49.346;8.798;2023-02-12T13:10:59;102233.75;;;12.28;66.25
61384;BME280;63511;49.346;8.798;2023-02-12T13:13:32;102232.56;;;12.52;65.22
61384;BME280;63511;49.346;8.798;2023-02-12T13:16:06;102230.63;;;12.68;65.50
61384;BME280;63511;49.346;8.798;2023-02-12T13:18:45;102229.94;;;12.79;65.67
61384;BME280;63511;49.346;8.798;2023-02-12T13:21:31;102227.78;;;13.21;63.92
61384;BME280;63511;49.346;8.798;2023-02-12T13:24:04;102228.59;;;13.11;64.73
61384;BME280;63511;49.346;8.798;2023-02-12T13:26:42;102219.50;;;12.95;64.67
61384;BME280;63511;49.346;8.798;2023-02-12T13:29:13;102217.84;;;13.14;64.10